Time;durP1;ratioP1;P1;durP2;ratioP2;P2;SDS_P1;SDS_P2;PMS_P1;PMS_P2;Temp;Humidity;BMP_temperature;BMP_pressure;BME280_temperature;BME280_humidity;BME280_pressure;Samples;Min_cycle;Max_cycle;Signal;HPM_P1;HPM_P2
2022/10/30 00:00:44;;;;;;;;;;;15.30;99.90;;;;;;5065675;28;19971;-63
2022/10/30 00:03:13;;;;;;;;;;;15.20;99.90;;;;;;5066132;28;19974;-63
2022/10/30 00:05:42;;;;;;;;;;;15.20;99.90;;;;;;5060354;28;19963;-62
2022/10/30 00:08:10;;;;;;;;;;;15.20;99.90;;;;;;5067486;28;20495;-63
2022/10/30 00:10:39;;;;;;;;;;;15.20;99.90;;;;;;5070540;28;19966;-62
2022/10/30 00:13:06;;;;;;;;;;;15.10;99.90;;;;;;5067402;28;19960;-62
2022/10/30 00:15:34;;;;;;;;;;;15.00;99.90;;;;;;5070674;28;19966;-63
2022/10/30 00:18:03;;;;;;;;;;;15.00;99.90;;;;;;5065918;28;20018;-63
2022/10/30 00:20:31;;;;;;;;;;;14.90;99.90;;;;;;5073063;28;19968;-62
2022/10/30 00:22:59;;;;;;;;;;;14.90;99.90;;;;;;5063486;28;19974;-63
2022/10/30 00:25:27;;;;;;;;;;;14.90;99.90;;;;;;5061436;28;20032;-62
2022/10/30 00:27:55;;;;;;;;;;;14.90;99.90;;;;;;5057260;28;19966;-62
2022/10/30 00:30:23;;;;;;;;;;;14.90;99.90;;;;;;5070758;28;19966;-62
2022/10/30 00:32:50;;;;;;;;;;;14.90;99.90;;;;;;5071153;28;19970;-62
2022/10/30 00:35:19;;;;;;;;;;;14.90;99.90;;;;;;5070822;28;19967;-63
2022/10/30 00:37:47;;;;;;;;;;;14.90;99.90;;;;;;5070737;28;19960;-62
2022/10/30 00:40:16;;;;;;;;;;;15.00;99.90;;;;;;5070101;28;19963;-61
2022/10/30 00:42:43;;;;;;;;;;;14.90;99.90;;;;;;5070531;28;19983;-62
2022/10/30 00:45:11;;;;;;;;;;;14.80;99.90;;;;;;5070640;28;19960;-62
2022/10/30 00:47:41;;;;;;;;;;;14.80;99.90;;;;;;5070736;28;20407;-62
2022/10/30 00:50:13;;;;;;;;;;;14.80;99.90;;;;;;5069321;28;20354;-62
2022/10/30 00:52:45;;;;;;;;;;;14.80;99.90;;;;;;5069272;28;20017;-62
2022/10/30 00:55:15;;;;;;;;;;;14.90;99.90;;;;;;5059258;28;19974;-62
2022/10/30 00:57:44;;;;;;;;;;;14.90;99.90;;;;;;5072500;28;19968;-62
2022/10/30 01:00:12;;;;;;;;;;;14.90;99.90;;;;;;5071535;28;19968;-62
2022/10/30 01:02:41;;;;;;;;;;;14.90;99.90;;;;;;5072156;28;19990;-62
2022/10/30 01:05:09;;;;;;;;;;;14.90;99.90;;;;;;5060376;28;19975;-62
2022/10/30 01:07:43;;;;;;;;;;;14.90;99.90;;;;;;5064441;28;19964;-62
2022/10/30 01:10:12;;;;;;;;;;;14.80;99.90;;;;;;5071529;28;20445;-62
2022/10/30 01:12:40;;;;;;;;;;;14.80;99.90;;;;;;5052410;28;19975;-62
2022/10/30 01:15:08;;;;;;;;;;;14.80;99.90;;;;;;5051964;28;20619;-62
2022/10/30 01:17:51;;;;;;;;;;;14.80;99.90;;;;;;5092081;22;19970;-64
2022/10/30 01:20:28;;;;;;;;;;;14.70;99.90;;;;;;5070293;28;19967;-65
2022/10/30 01:23:02;;;;;;;;;;;14.70;99.90;;;;;;5072628;28;19968;-64
2022/10/30 01:25:36;;;;;;;;;;;14.70;99.90;;;;;;5068809;28;20359;-64
2022/10/30 01:28:09;;;;;;;;;;;14.80;99.90;;;;;;5048594;28;19965;-64
2022/10/30 01:30:46;;;;;;;;;;;14.80;99.90;;;;;;5045700;28;20361;-65
2022/10/30 01:33:23;;;;;;;;;;;14.80;99.90;;;;;;5050754;28;19968;-65
2022/10/30 01:35:53;;;;;;;;;;;14.80;99.90;;;;;;5054722;28;20437;-65
2022/10/30 01:38:27;;;;;;;;;;;14.80;99.90;;;;;;5055973;28;19974;-65
2022/10/30 01:40:54;;;;;;;;;;;14.80;99.90;;;;;;5051893;28;20334;-65
2022/10/30 01:43:22;;;;;;;;;;;14.70;99.90;;;;;;5051856;28;19975;-65
2022/10/30 01:45:59;;;;;;;;;;;14.70;99.90;;;;;;5059250;28;19963;-65
2022/10/30 01:48:41;;;;;;;;;;;14.80;99.90;;;;;;5059554;28;19963;-65
2022/10/30 01:51:12;;;;;;;;;;;14.70;99.90;;;;;;5053236;28;19989;-65
2022/10/30 01:53:45;;;;;;;;;;;14.50;99.90;;;;;;5062767;28;19964;-65
2022/10/30 01:56:17;;;;;;;;;;;14.40;99.90;;;;;;5051281;28;19975;-65
2022/10/30 01:58:50;;;;;;;;;;;14.40;99.90;;;;;;5051646;28;20471;-65
2022/10/30 02:01:18;;;;;;;;;;;14.40;99.90;;;;;;5051549;28;19973;-65
2022/10/30 02:03:46;;;;;;;;;;;14.50;99.90;;;;;;5050425;28;19982;-65
2022/10/30 02:06:14;;;;;;;;;;;14.50;99.90;;;;;;5052569;28;19974;-65
2022/10/30 02:08:42;;;;;;;;;;;14.60;99.90;;;;;;5050769;28;20000;-65
2022/10/30 02:11:11;;;;;;;;;;;14.70;99.90;;;;;;5052284;28;19972;-65
2022/10/30 02:13:38;;;;;;;;;;;14.60;99.90;;;;;;5055585;28;19981;-65
2022/10/30 02:16:07;;;;;;;;;;;14.60;99.90;;;;;;5055063;28;19990;-65
2022/10/30 02:18:34;;;;;;;;;;;14.70;99.90;;;;;;5054911;28;19967;-65
2022/10/30 02:21:04;;;;;;;;;;;14.70;99.90;;;;;;5035192;28;19977;-65
2022/10/30 02:23:32;;;;;;;;;;;14.70;99.90;;;;;;5054445;28;20335;-65
2022/10/30 02:25:59;;;;;;;;;;;14.70;99.90;;;;;;5055110;28;20070;-65
2022/10/30 02:28:27;;;;;;;;;;;14.70;99.90;;;;;;5055277;28;20001;-65
2022/10/30 02:30:55;;;;;;;;;;;14.70;99.90;;;;;;5054727;28;19979;-65
2022/10/30 02:33:23;;;;;;;;;;;14.70;99.90;;;;;;5055072;28;19967;-65
2022/10/30 02:35:50;;;;;;;;;;;14.60;99.90;;;;;;5054351;28;19983;-64
2022/10/30 02:38:20;;;;;;;;;;;14.70;99.90;;;;;;5055111;28;19971;-65
2022/10/30 02:40:47;;;;;;;;;;;14.60;99.90;;;;;;5052957;28;20452;-65
2022/10/30 02:43:15;;;;;;;;;;;14.70;99.90;;;;;;5038649;28;19991;-65
2022/10/30 02:45:43;;;;;;;;;;;14.70;99.90;;;;;;5040013;28;20467;-65
2022/10/30 02:48:11;;;;;;;;;;;14.70;99.90;;;;;;5054841;28;19968;-64
2022/10/30 02:50:38;;;;;;;;;;;14.70;99.90;;;;;;5041709;28;20462;-65
2022/10/30 02:53:06;;;;;;;;;;;14.70;99.90;;;;;;5063491;28;19975;-65
2022/10/30 02:55:35;;;;;;;;;;;14.70;99.90;;;;;;5055469;28;20374;-64
2022/10/30 02:58:03;;;;;;;;;;;14.70;99.90;;;;;;5061667;28;19968;-65
2022/10/30 03:00:31;;;;;;;;;;;14.70;99.90;;;;;;5062862;28;19966;-66
2022/10/30 03:02:59;;;;;;;;;;;14.80;99.90;;;;;;5060212;28;19964;-65
2022/10/30 03:05:26;;;;;;;;;;;14.80;99.90;;;;;;5055994;28;19971;-65
2022/10/30 03:07:54;;;;;;;;;;;14.90;99.90;;;;;;5059094;28;19963;-65
2022/10/30 03:10:22;;;;;;;;;;;14.90;99.90;;;;;;5060351;28;19966;-65
2022/10/30 03:12:52;;;;;;;;;;;15.00;99.90;;;;;;5055081;28;19964;-66
2022/10/30 03:15:19;;;;;;;;;;;15.00;99.90;;;;;;5055597;28;19962;-65
2022/10/30 03:17:48;;;;;;;;;;;15.00;99.90;;;;;;5047424;28;19974;-65
2022/10/30 03:20:16;;;;;;;;;;;15.00;99.90;;;;;;5074106;28;19972;-65
2022/10/30 03:22:44;;;;;;;;;;;14.90;99.90;;;;;;5053725;28;19969;-65
2022/10/30 03:25:11;;;;;;;;;;;15.00;99.90;;;;;;5061319;28;19971;-65
2022/10/30 03:27:39;;;;;;;;;;;14.90;99.90;;;;;;5048700;28;20055;-64
2022/10/30 03:30:09;;;;;;;;;;;14.90;99.90;;;;;;5045388;28;19971;-66
2022/10/30 03:32:37;;;;;;;;;;;14.90;99.90;;;;;;5063065;28;20056;-66
2022/10/30 03:35:05;;;;;;;;;;;14.90;99.90;;;;;;5059682;28;19975;-65
2022/10/30 03:37:33;;;;;;;;;;;14.90;99.90;;;;;;5045872;28;19979;-64
2022/10/30 03:40:00;;;;;;;;;;;14.90;99.90;;;;;;5041285;28;19969;-64
2022/10/30 03:42:28;;;;;;;;;;;14.90;99.90;;;;;;5050182;28;19974;-64
2022/10/30 03:44:56;;;;;;;;;;;14.90;99.90;;;;;;5056758;28;20445;-64
2022/10/30 03:47:25;;;;;;;;;;;14.90;99.90;;;;;;5055572;28;20433;-65
2022/10/30 03:49:53;;;;;;;;;;;14.80;99.90;;;;;;5052397;28;20348;-65
2022/10/30 03:52:21;;;;;;;;;;;14.80;99.90;;;;;;5053375;28;19968;-65
2022/10/30 03:54:48;;;;;;;;;;;14.70;99.90;;;;;;5054965;28;19970;-64
2022/10/30 03:57:16;;;;;;;;;;;14.70;99.90;;;;;;5057338;28;19974;-65
2022/10/30 03:59:44;;;;;;;;;;;14.70;99.90;;;;;;5060933;28;19964;-65
2022/10/30 04:02:11;;;;;;;;;;;14.80;99.90;;;;;;5063828;28;19974;-65
2022/10/30 04:04:41;;;;;;;;;;;14.80;99.90;;;;;;5059105;28;19963;-65
2022/10/30 04:07:08;;;;;;;;;;;14.80;99.90;;;;;;5048207;28;20048;-65
2022/10/30 04:09:36;;;;;;;;;;;14.80;99.90;;;;;;5056805;28;20094;-65
2022/10/30 04:12:04;;;;;;;;;;;14.80;99.90;;;;;;5045374;28;19968;-64
2022/10/30 04:14:32;;;;;;;;;;;14.80;99.90;;;;;;5062079;28;19972;-65
2022/10/30 04:17:00;;;;;;;;;;;14.80;99.90;;;;;;5050714;28;19983;-65
2022/10/30 04:19:28;;;;;;;;;;;14.80;99.90;;;;;;5061025;28;19966;-64
2022/10/30 04:21:57;;;;;;;;;;;14.80;99.90;;;;;;5063592;28;19970;-65
2022/10/30 04:24:24;;;;;;;;;;;14.80;99.90;;;;;;5055003;28;19968;-65
2022/10/30 04:26:52;;;;;;;;;;;14.70;99.90;;;;;;5041124;28;19968;-65
2022/10/30 04:29:20;;;;;;;;;;;14.60;99.90;;;;;;5057706;28;20321;-65
2022/10/30 04:31:47;;;;;;;;;;;14.60;99.90;;;;;;5058313;28;19964;-65
2022/10/30 04:34:15;;;;;;;;;;;14.60;99.90;;;;;;5060765;28;20364;-65
2022/10/30 04:36:43;;;;;;;;;;;14.50;99.90;;;;;;5043676;28;19968;-65
2022/10/30 04:39:12;;;;;;;;;;;14.50;99.90;;;;;;5057446;28;19973;-65
2022/10/30 04:41:40;;;;;;;;;;;14.50;99.90;;;;;;5052300;28;19965;-65
2022/10/30 04:44:07;;;;;;;;;;;14.40;99.90;;;;;;5054007;28;19971;-65
2022/10/30 04:46:35;;;;;;;;;;;14.30;99.90;;;;;;5057174;28;19970;-65
2022/10/30 04:49:03;;;;;;;;;;;14.30;99.90;;;;;;5064243;28;19967;-65
2022/10/30 04:51:30;;;;;;;;;;;14.30;99.90;;;;;;5066540;28;19971;-65
2022/10/30 04:53:58;;;;;;;;;;;14.30;99.90;;;;;;5053497;28;19972;-65
2022/10/30 04:56:27;;;;;;;;;;;14.30;99.90;;;;;;5049178;28;19964;-65
2022/10/30 04:58:55;;;;;;;;;;;14.20;99.90;;;;;;5057447;28;20489;-65
2022/10/30 05:01:22;;;;;;;;;;;14.20;99.90;;;;;;5051703;28;19964;-65
2022/10/30 05:03:52;;;;;;;;;;;14.20;99.90;;;;;;5050536;28;19993;-64
2022/10/30 05:06:22;;;;;;;;;;;14.20;99.90;;;;;;5045803;28;20063;-64
2022/10/30 05:08:50;;;;;;;;;;;14.20;99.90;;;;;;5059669;28;19971;-65
2022/10/30 05:11:18;;;;;;;;;;;14.30;99.90;;;;;;5053641;28;19971;-64
2022/10/30 05:13:48;;;;;;;;;;;14.30;99.90;;;;;;5047208;28;19964;-64
2022/10/30 05:16:15;;;;;;;;;;;14.30;99.90;;;;;;5060342;28;20435;-64
2022/10/30 05:18:43;;;;;;;;;;;14.30;99.90;;;;;;5071292;28;20053;-64
2022/10/30 05:21:11;;;;;;;;;;;14.30;99.90;;;;;;5051222;28;19968;-64
2022/10/30 05:23:38;;;;;;;;;;;14.20;99.90;;;;;;5058546;28;20444;-64
2022/10/30 05:26:06;;;;;;;;;;;14.20;99.90;;;;;;5051063;28;19968;-64
2022/10/30 05:28:34;;;;;;;;;;;14.10;99.90;;;;;;5063197;28;20390;-65
2022/10/30 05:31:03;;;;;;;;;;;14.00;99.90;;;;;;5046045;28;19964;-65
2022/10/30 05:33:31;;;;;;;;;;;14.00;99.90;;;;;;5033245;28;20349;-65
2022/10/30 05:35:58;;;;;;;;;;;14.00;99.90;;;;;;5034579;28;19964;-65
2022/10/30 05:38:26;;;;;;;;;;;14.00;99.90;;;;;;5046474;28;20437;-65
2022/10/30 05:40:54;;;;;;;;;;;14.00;99.90;;;;;;5058777;28;20356;-65
2022/10/30 05:43:21;;;;;;;;;;;13.90;99.90;;;;;;5055034;28;19987;-65
2022/10/30 05:45:49;;;;;;;;;;;13.90;99.90;;;;;;5062545;28;19978;-65
2022/10/30 05:48:18;;;;;;;;;;;13.90;99.90;;;;;;5053942;28;19968;-66
2022/10/30 05:50:46;;;;;;;;;;;13.90;99.90;;;;;;5061379;28;19970;-65
2022/10/30 05:53:14;;;;;;;;;;;13.90;99.90;;;;;;5043161;28;20063;-66
2022/10/30 05:55:41;;;;;;;;;;;13.90;99.90;;;;;;5055239;28;19963;-67
2022/10/30 05:58:09;;;;;;;;;;;13.80;99.90;;;;;;5069986;28;19966;-65
2022/10/30 06:00:39;;;;;;;;;;;13.80;99.90;;;;;;5038136;28;19963;-65
2022/10/30 06:03:07;;;;;;;;;;;13.80;99.90;;;;;;5043167;28;19973;-66
2022/10/30 06:05:37;;;;;;;;;;;13.70;99.90;;;;;;5051539;28;20029;-65
2022/10/30 06:08:05;;;;;;;;;;;13.60;99.90;;;;;;5035064;28;19991;-65
2022/10/30 06:10:33;;;;;;;;;;;13.70;99.90;;;;;;5031615;28;19972;-65
2022/10/30 06:13:03;;;;;;;;;;;13.70;99.90;;;;;;5031777;28;19967;-66
2022/10/30 06:15:31;;;;;;;;;;;13.60;99.90;;;;;;5044734;28;20044;-66
2022/10/30 06:18:04;;;;;;;;;;;13.70;99.90;;;;;;5048521;28;19968;-65
2022/10/30 06:20:32;;;;;;;;;;;13.80;99.90;;;;;;5050411;28;20063;-64
2022/10/30 06:23:02;;;;;;;;;;;13.80;99.90;;;;;;5053780;28;20071;-65
2022/10/30 06:25:31;;;;;;;;;;;13.80;99.90;;;;;;5042506;28;20438;-65
2022/10/30 06:28:07;;;;;;;;;;;13.70;99.90;;;;;;5046107;28;19975;-65
2022/10/30 06:30:35;;;;;;;;;;;13.70;99.90;;;;;;5039923;28;19968;-67
2022/10/30 06:33:03;;;;;;;;;;;13.60;99.90;;;;;;5045521;28;19981;-65
2022/10/30 06:35:31;;;;;;;;;;;13.60;99.90;;;;;;5044248;28;19971;-65
2022/10/30 06:37:59;;;;;;;;;;;13.60;99.90;;;;;;5040329;28;19971;-65
2022/10/30 06:40:29;;;;;;;;;;;13.60;99.90;;;;;;5037801;28;20090;-64
2022/10/30 06:42:57;;;;;;;;;;;13.60;99.90;;;;;;5038287;28;19975;-65
2022/10/30 06:45:25;;;;;;;;;;;13.60;99.90;;;;;;5041983;28;19978;-66
2022/10/30 06:47:53;;;;;;;;;;;13.60;99.90;;;;;;5039629;28;19978;-66
2022/10/30 06:50:23;;;;;;;;;;;13.60;99.90;;;;;;5044599;28;19972;-65
2022/10/30 06:52:50;;;;;;;;;;;13.60;99.90;;;;;;5038979;28;20026;-65
2022/10/30 06:55:18;;;;;;;;;;;13.60;99.90;;;;;;5042475;28;20034;-65
2022/10/30 06:57:52;;;;;;;;;;;13.70;99.90;;;;;;5045757;28;20077;-65
2022/10/30 07:00:20;;;;;;;;;;;13.70;99.90;;;;;;5048619;28;19972;-65
2022/10/30 07:02:54;;;;;;;;;;;13.70;99.90;;;;;;5047615;28;19978;-65
2022/10/30 07:05:23;;;;;;;;;;;13.70;99.90;;;;;;5053220;28;20726;-65
2022/10/30 07:07:50;;;;;;;;;;;13.80;99.90;;;;;;5035421;28;19970;-65
2022/10/30 07:10:18;;;;;;;;;;;13.80;99.90;;;;;;5048097;28;19974;-66
2022/10/30 07:12:54;;;;;;;;;;;13.90;99.90;;;;;;5040852;28;21227;-65
2022/10/30 07:15:22;;;;;;;;;;;14.00;99.90;;;;;;5043235;28;20203;-65
2022/10/30 07:17:54;;;;;;;;;;;14.00;99.90;;;;;;5069271;22;20905;-62
2022/10/30 07:20:22;;;;;;;;;;;14.00;99.90;;;;;;5041584;28;19968;-64
2022/10/30 07:22:50;;;;;;;;;;;14.20;99.90;;;;;;5041589;28;19972;-64
2022/10/30 07:25:17;;;;;;;;;;;14.30;99.90;;;;;;5039372;28;19971;-65
2022/10/30 07:27:46;;;;;;;;;;;14.40;99.90;;;;;;5027861;28;19972;-65
2022/10/30 07:30:16;;;;;;;;;;;14.60;99.90;;;;;;5022405;28;20460;-65
2022/10/30 07:32:44;;;;;;;;;;;14.70;99.90;;;;;;5023186;28;19987;-64
2022/10/30 07:35:13;;;;;;;;;;;14.90;99.90;;;;;;5024366;28;19971;-65
2022/10/30 07:37:41;;;;;;;;;;;15.00;99.90;;;;;;5021516;28;19974;-64
2022/10/30 07:40:09;;;;;;;;;;;15.20;99.90;;;;;;5022680;28;20067;-65
2022/10/30 07:42:39;;;;;;;;;;;15.30;99.90;;;;;;5023600;28;19969;-65
2022/10/30 07:45:08;;;;;;;;;;;15.50;99.90;;;;;;5022842;28;19967;-65
2022/10/30 07:47:39;;;;;;;;;;;15.60;99.90;;;;;;5021610;28;20054;-64
2022/10/30 07:50:08;;;;;;;;;;;15.70;99.90;;;;;;5022623;28;20430;-65
2022/10/30 07:52:35;;;;;;;;;;;15.90;99.90;;;;;;5025187;28;19963;-65
2022/10/30 07:55:03;;;;;;;;;;;16.00;99.90;;;;;;5025268;28;19984;-65
2022/10/30 07:57:32;;;;;;;;;;;16.20;99.90;;;;;;5023631;28;19978;-65
2022/10/30 07:59:59;;;;;;;;;;;16.40;99.90;;;;;;5024124;28;19975;-65
2022/10/30 08:02:31;;;;;;;;;;;16.60;99.90;;;;;;5023784;28;20102;-65
2022/10/30 08:05:00;;;;;;;;;;;16.70;99.90;;;;;;5022928;28;20432;-65
2022/10/30 08:07:31;;;;;;;;;;;16.80;99.90;;;;;;5020202;28;19978;-65
2022/10/30 08:09:59;;;;;;;;;;;16.90;99.90;;;;;;5022853;28;19987;-65
2022/10/30 08:12:27;;;;;;;;;;;17.00;99.90;;;;;;5022820;28;19975;-65
2022/10/30 08:14:55;;;;;;;;;;;17.10;99.90;;;;;;5023553;28;19971;-65
2022/10/30 08:17:23;;;;;;;;;;;17.20;99.90;;;;;;5020504;28;19982;-65
2022/10/30 08:19:50;;;;;;;;;;;17.30;99.90;;;;;;5022724;28;19972;-65
2022/10/30 08:22:19;;;;;;;;;;;17.40;99.90;;;;;;5022622;28;19976;-65
2022/10/30 08:24:47;;;;;;;;;;;17.50;99.90;;;;;;5023173;28;19971;-65
2022/10/30 08:27:16;;;;;;;;;;;17.70;99.90;;;;;;5021014;28;19975;-65
2022/10/30 08:29:43;;;;;;;;;;;17.80;99.90;;;;;;5021364;28;19978;-65
2022/10/30 08:32:11;;;;;;;;;;;18.00;99.90;;;;;;5022809;28;20423;-65
2022/10/30 08:34:39;;;;;;;;;;;18.30;99.90;;;;;;5023419;28;19963;-65
2022/10/30 08:37:07;;;;;;;;;;;18.60;99.90;;;;;;5021216;28;19978;-65
2022/10/30 08:39:36;;;;;;;;;;;18.80;99.90;;;;;;5022656;28;19963;-65
2022/10/30 08:42:04;;;;;;;;;;;19.00;99.90;;;;;;5022208;28;19978;-65
2022/10/30 08:44:32;;;;;;;;;;;19.30;99.90;;;;;;5021771;28;20568;-65
2022/10/30 08:46:59;;;;;;;;;;;19.50;99.90;;;;;;5019358;28;19981;-65
2022/10/30 08:49:27;;;;;;;;;;;19.70;99.90;;;;;;5022835;28;19971;-63
2022/10/30 08:51:55;;;;;;;;;;;19.90;99.90;;;;;;5022628;28;19974;-63
2022/10/30 08:54:22;;;;;;;;;;;20.10;99.90;;;;;;5021473;28;19971;-63
2022/10/30 08:56:51;;;;;;;;;;;20.20;99.90;;;;;;5019472;28;19971;-63
2022/10/30 08:59:19;;;;;;;;;;;20.40;99.90;;;;;;5021383;28;19975;-63
2022/10/30 09:01:49;;;;;;;;;;;20.50;99.90;;;;;;5021433;28;19978;-63
2022/10/30 09:04:17;;;;;;;;;;;20.70;99.90;;;;;;5020701;28;20002;-63
2022/10/30 09:06:45;;;;;;;;;;;20.90;99.90;;;;;;5018617;28;20085;-63
2022/10/30 09:09:13;;;;;;;;;;;21.00;99.90;;;;;;5020278;28;19978;-63
2022/10/30 09:11:41;;;;;;;;;;;21.20;99.90;;;;;;5022838;28;19970;-64
2022/10/30 09:14:10;;;;;;;;;;;21.50;99.90;;;;;;5023731;28;19974;-64
2022/10/30 09:16:37;;;;;;;;;;;21.60;99.90;;;;;;5021963;28;20351;-63
2022/10/30 09:19:05;;;;;;;;;;;21.70;99.90;;;;;;5023035;28;20396;-63
2022/10/30 09:21:33;;;;;;;;;;;21.70;99.90;;;;;;5023291;28;19972;-63
2022/10/30 09:24:00;;;;;;;;;;;21.70;99.90;;;;;;5021376;28;19976;-64
2022/10/30 09:26:28;;;;;;;;;;;21.80;99.90;;;;;;5021956;28;20491;-64
2022/10/30 09:28:56;;;;;;;;;;;22.00;99.90;;;;;;5021669;28;19995;-63
2022/10/30 09:31:25;;;;;;;;;;;22.20;99.90;;;;;;5020905;28;19972;-63
2022/10/30 09:33:53;;;;;;;;;;;22.30;99.90;;;;;;5021887;28;19971;-63
2022/10/30 09:36:21;;;;;;;;;;;22.40;99.90;;;;;;5021480;28;19975;-63
2022/10/30 09:38:49;;;;;;;;;;;22.50;99.90;;;;;;5022002;28;19971;-62
2022/10/30 09:41:28;;;;;;;;;;;22.60;99.90;;;;;;5021529;28;19983;-63
2022/10/30 09:44:02;;;;;;;;;;;22.70;99.90;;;;;;5023734;28;19972;-63
2022/10/30 09:46:42;;;;;;;;;;;22.70;99.90;;;;;;5020412;28;19976;-63
2022/10/30 09:49:18;;;;;;;;;;;22.90;99.90;;;;;;5021477;28;20452;-63
2022/10/30 09:51:55;;;;;;;;;;;22.90;99.90;;;;;;5021335;28;20365;-63
2022/10/30 09:54:28;;;;;;;;;;;23.00;99.90;;;;;;5023073;28;19977;-62
2022/10/30 09:57:00;;;;;;;;;;;22.90;99.90;;;;;;5020922;28;20503;-63
2022/10/30 09:59:35;;;;;;;;;;;22.80;99.90;;;;;;5022193;28;19974;-65
2022/10/30 10:02:11;;;;;;;;;;;22.90;99.90;;;;;;5022406;28;19977;-65
2022/10/30 10:04:41;;;;;;;;;;;23.20;99.90;;;;;;5019007;28;19964;-65
2022/10/30 10:07:13;;;;;;;;;;;23.50;99.90;;;;;;5018780;28;20467;-63
2022/10/30 10:09:43;;;;;;;;;;;23.80;99.90;;;;;;5018595;28;19965;-63
2022/10/30 10:12:13;;;;;;;;;;;24.20;99.90;;;;;;5020320;28;19969;-63
2022/10/30 10:14:43;;;;;;;;;;;24.30;99.90;;;;;;5019855;28;20457;-63
2022/10/30 10:17:15;;;;;;;;;;;24.50;99.90;;;;;;5018055;28;19974;-64
2022/10/30 10:19:48;;;;;;;;;;;24.60;99.90;;;;;;5019391;28;19965;-64
2022/10/30 10:22:19;;;;;;;;;;;24.10;99.90;;;;;;5021980;28;19990;-63
2022/10/30 10:24:47;;;;;;;;;;;23.80;99.90;;;;;;5022214;28;20456;-63
2022/10/30 10:27:21;;;;;;;;;;;23.50;99.90;;;;;;5019329;28;21368;-63
2022/10/30 10:29:54;;;;;;;;;;;23.50;99.90;;;;;;5020485;28;19980;-63
2022/10/30 10:32:40;;;;;;;;;;;23.70;99.90;;;;;;5022228;28;19972;-63
2022/10/30 10:35:17;;;;;;;;;;;23.70;99.90;;;;;;5026285;28;19972;-63
2022/10/30 10:37:49;;;;;;;;;;;23.80;99.90;;;;;;5024750;28;20495;-63
2022/10/30 10:40:22;;;;;;;;;;;24.00;99.90;;;;;;5024828;28;19983;-63
2022/10/30 10:42:55;;;;;;;;;;;24.00;99.90;;;;;;5027140;28;19972;-63
2022/10/30 10:45:27;;;;;;;;;;;24.00;99.90;;;;;;5026058;28;19977;-63
2022/10/30 10:48:16;;;;;;;;;;;24.20;99.90;;;;;;5024829;28;19972;-64
2022/10/30 10:50:48;;;;;;;;;;;24.30;99.90;;;;;;5024978;28;20022;-63
2022/10/30 10:53:19;;;;;;;;;;;24.40;99.90;;;;;;5025235;28;20532;-63
2022/10/30 10:55:49;;;;;;;;;;;24.50;99.90;;;;;;5025696;28;19972;-63
2022/10/30 10:58:21;;;;;;;;;;;24.80;99.90;;;;;;5023862;28;20083;-63
2022/10/30 11:00:49;;;;;;;;;;;24.70;99.90;;;;;;5025635;28;19972;-63
2022/10/30 11:03:21;;;;;;;;;;;24.80;99.90;;;;;;5024404;28;19973;-63
2022/10/30 11:05:50;;;;;;;;;;;24.70;99.90;;;;;;5025908;28;19979;-63
2022/10/30 11:08:19;;;;;;;;;;;24.80;99.90;;;;;;5022519;28;20540;-63
2022/10/30 11:10:49;;;;;;;;;;;24.90;99.90;;;;;;5024917;28;19995;-63
2022/10/30 11:13:16;;;;;;;;;;;24.70;99.90;;;;;;5022182;28;20091;-62
2022/10/30 11:15:51;;;;;;;;;;;24.30;99.90;;;;;;5025727;28;20732;-64
2022/10/30 11:18:20;;;;;;;;;;;24.30;99.90;;;;;;5024331;28;21014;-63
2022/10/30 11:20:52;;;;;;;;;;;24.60;99.90;;;;;;5025901;28;19972;-63
2022/10/30 11:23:47;;;;;;;;;;;24.90;99.90;;;;;;5023534;28;19972;-63
2022/10/30 11:26:31;;;;;;;;;;;25.10;99.90;;;;;;4986316;28;19980;-63
2022/10/30 11:29:03;;;;;;;;;;;25.20;99.90;;;;;;5025508;28;19982;-64
2022/10/30 11:31:36;;;;;;;;;;;25.00;99.90;;;;;;5024375;28;19992;-62
2022/10/30 11:34:14;;;;;;;;;;;24.90;99.90;;;;;;5023672;28;19964;-63
2022/10/30 11:36:42;;;;;;;;;;;25.00;99.90;;;;;;5022462;28;19973;-64
2022/10/30 11:39:10;;;;;;;;;;;25.40;99.90;;;;;;5024548;28;20574;-63
2022/10/30 11:41:39;;;;;;;;;;;25.10;99.90;;;;;;5024296;28;20571;-63
2022/10/30 11:44:06;;;;;;;;;;;25.10;99.90;;;;;;5025145;28;19972;-63
2022/10/30 11:46:35;;;;;;;;;;;25.10;99.90;;;;;;5022697;28;19968;-63
2022/10/30 11:49:03;;;;;;;;;;;24.90;99.90;;;;;;5025942;28;21075;-63
2022/10/30 11:51:36;;;;;;;;;;;24.90;99.90;;;;;;5026441;28;19976;-63
2022/10/30 11:54:05;;;;;;;;;;;25.10;99.90;;;;;;5025742;28;19973;-63
2022/10/30 11:56:34;;;;;;;;;;;25.50;99.90;;;;;;5023196;28;20166;-63
2022/10/30 11:59:02;;;;;;;;;;;25.50;99.90;;;;;;5026718;28;20071;-63
2022/10/30 12:01:31;;;;;;;;;;;25.50;99.90;;;;;;5025011;28;19972;-63
2022/10/30 12:04:12;;;;;;;;;;;25.30;99.90;;;;;;5025132;28;20315;-63
2022/10/30 12:06:41;;;;;;;;;;;25.40;99.90;;;;;;5022487;28;19968;-63
2022/10/30 12:09:11;;;;;;;;;;;25.40;99.90;;;;;;5024478;28;19969;-63
2022/10/30 12:11:42;;;;;;;;;;;25.40;99.90;;;;;;5023933;28;20364;-63
2022/10/30 12:14:16;;;;;;;;;;;25.70;99.90;;;;;;5023641;28;19968;-63
2022/10/30 12:16:45;;;;;;;;;;;25.80;99.90;;;;;;5021539;28;19972;-63
2022/10/30 12:19:14;;;;;;;;;;;25.90;99.90;;;;;;5024791;28;19972;-63
2022/10/30 12:21:45;;;;;;;;;;;26.20;99.90;;;;;;5024641;28;20424;-63
2022/10/30 12:24:16;;;;;;;;;;;25.80;99.90;;;;;;5022217;28;19977;-62
2022/10/30 12:26:46;;;;;;;;;;;25.90;99.90;;;;;;5019148;28;19972;-63
2022/10/30 12:29:15;;;;;;;;;;;26.10;99.90;;;;;;5023305;28;19972;-63
2022/10/30 12:31:46;;;;;;;;;;;25.70;99.90;;;;;;5023453;28;20018;-63
2022/10/30 12:34:32;;;;;;;;;;;25.70;99.90;;;;;;5024310;28;20642;-62
2022/10/30 12:37:04;;;;;;;;;;;25.40;99.90;;;;;;5022972;28;19983;-63
2022/10/30 12:39:39;;;;;;;;;;;25.40;99.90;;;;;;5024771;28;19972;-63
2022/10/30 12:42:11;;;;;;;;;;;25.70;99.90;;;;;;5022311;28;19969;-63
2022/10/30 12:44:41;;;;;;;;;;;26.00;99.90;;;;;;5023049;28;20067;-63
2022/10/30 12:47:12;;;;;;;;;;;26.20;99.90;;;;;;5022547;28;19972;-63
2022/10/30 12:49:41;;;;;;;;;;;26.00;99.90;;;;;;5022893;28;19965;-63
2022/10/30 12:52:14;;;;;;;;;;;26.10;99.90;;;;;;5023030;28;19979;-63
2022/10/30 12:54:44;;;;;;;;;;;26.20;99.90;;;;;;5022844;28;19968;-63
2022/10/30 12:57:13;;;;;;;;;;;26.30;99.90;;;;;;5022127;28;19973;-63
2022/10/30 12:59:45;;;;;;;;;;;25.90;99.90;;;;;;5023041;28;19969;-63
2022/10/30 13:02:18;;;;;;;;;;;25.50;99.90;;;;;;5023939;28;19975;-63
2022/10/30 13:04:48;;;;;;;;;;;25.40;99.90;;;;;;5024522;28;20377;-63
2022/10/30 13:07:19;;;;;;;;;;;25.10;99.90;;;;;;5026738;28;20037;-63
2022/10/30 13:09:51;;;;;;;;;;;25.00;99.90;;;;;;5024268;28;19972;-63
2022/10/30 13:12:20;;;;;;;;;;;24.90;99.90;;;;;;5025378;28;20166;-62
2022/10/30 13:14:51;;;;;;;;;;;25.00;99.90;;;;;;5021011;28;19972;-63
2022/10/30 13:17:19;;;;;;;;;;;25.10;99.90;;;;;;5054207;23;19978;-63
2022/10/30 13:19:47;;;;;;;;;;;25.00;99.90;;;;;;5071361;28;19972;-64
2022/10/30 13:22:20;;;;;;;;;;;24.60;99.90;;;;;;5070917;28;19974;-63
2022/10/30 13:24:51;;;;;;;;;;;23.80;99.90;;;;;;5077316;28;21277;-64
2022/10/30 13:27:23;;;;;;;;;;;23.30;99.90;;;;;;5071464;28;19985;-64
2022/10/30 13:29:52;;;;;;;;;;;23.10;99.90;;;;;;5079925;28;20356;-64
2022/10/30 13:32:26;;;;;;;;;;;22.80;99.90;;;;;;5081104;28;19978;-65
2022/10/30 13:34:58;;;;;;;;;;;22.60;99.90;;;;;;5080357;28;20063;-64
2022/10/30 13:37:31;;;;;;;;;;;22.40;99.90;;;;;;5076265;28;20017;-64
2022/10/30 13:40:09;;;;;;;;;;;22.10;99.90;;;;;;5081468;28;19970;-63
2022/10/30 13:42:45;;;;;;;;;;;22.00;99.90;;;;;;5078453;28;19975;-65
2022/10/30 13:45:25;;;;;;;;;;;22.00;99.90;;;;;;5078273;28;20024;-63
2022/10/30 13:47:59;;;;;;;;;;;21.90;99.90;;;;;;5079365;28;20647;-65
2022/10/30 13:50:35;;;;;;;;;;;21.90;99.90;;;;;;5079208;28;19975;-64
2022/10/30 13:53:06;;;;;;;;;;;21.80;99.90;;;;;;5079474;28;20456;-64
2022/10/30 13:55:34;;;;;;;;;;;21.80;99.90;;;;;;5077930;28;19970;-63
2022/10/30 13:58:04;;;;;;;;;;;21.70;99.90;;;;;;5078027;28;20106;-64
2022/10/30 14:00:44;;;;;;;;;;;21.70;99.90;;;;;;5078149;28;20020;-64
2022/10/30 14:03:18;;;;;;;;;;;21.70;99.90;;;;;;5078535;28;20456;-64
2022/10/30 14:05:49;;;;;;;;;;;21.60;99.90;;;;;;5084620;28;20507;-64
2022/10/30 14:08:24;;;;;;;;;;;21.60;99.90;;;;;;5095843;28;19968;-64
2022/10/30 14:10:52;;;;;;;;;;;21.70;99.90;;;;;;5096147;28;19969;-64
2022/10/30 14:13:27;;;;;;;;;;;21.70;99.90;;;;;;5086874;28;19963;-64
2022/10/30 14:15:56;;;;;;;;;;;21.60;99.90;;;;;;5075705;28;20074;-64
2022/10/30 14:18:25;;;;;;;;;;;21.60;99.90;;;;;;5075756;28;20049;-64
2022/10/30 14:20:53;;;;;;;;;;;21.60;99.90;;;;;;5075337;28;19974;-64
2022/10/30 14:23:24;;;;;;;;;;;21.50;99.90;;;;;;5075469;28;20070;-64
2022/10/30 14:26:10;;;;;;;;;;;21.50;99.90;;;;;;5076062;28;20352;-65
2022/10/30 14:28:39;;;;;;;;;;;21.50;99.90;;;;;;5075630;28;20414;-64
2022/10/30 14:31:08;;;;;;;;;;;21.60;99.90;;;;;;5075160;28;20496;-64